Terminal Aerodrome Forecast
Issued by NWS

Home | Current Version | Previous Version | Text Only | Print | Product List | Glossary Off
Versions: 1 2 3 4 5 6 7 8 9 10 11 12 13 14 15 16 17 18 19

857
FTUS43 KABR 261726
TAFMBG
TAF
KMBG 261726Z 2618/2718 35012KT P6SM OVC020
     FM262000 36014G21KT P6SM BKN035
     FM262300 01013KT P6SM SCT040
     FM270300 03009KT P6SM SCT030=

USA.gov is the U.S. government's official web portal to all federal, state and local government web resources and services.